Time;durP1;ratioP1;P1;durP2;ratioP2;P2;SDS_P1;SDS_P2;PMS_P1;PMS_P2;Temp;Humidity;BMP_temperature;BMP_pressure;BME280_temperature;BME280_humidity;BME280_pressure;Samples;Min_cycle;Max_cycle;Signal;HPM_P1;HPM_P2
2022/10/14 00:00:32;;;;;;;15.30;6.80;;;;;;;1.99;77.82;99672.45;101825;1303;74229;-25
2022/10/14 00:02:59;;;;;;;21.40;9.30;;;;;;;1.74;78.24;99667.35;101825;1305;61104;-25
2022/10/14 00:05:26;;;;;;;20.10;8.30;;;;;;;1.53;78.47;99668.73;101955;1305;62364;-26
2022/10/14 00:07:53;;;;;;;11.50;7.50;;;;;;;1.31;78.28;99668.43;101888;1297;76102;-25
2022/10/14 00:10:20;;;;;;;9.50;4.20;;;;;;;1.13;78.78;99664.42;101947;1305;76486;-25
2022/10/14 00:12:47;;;;;;;15.60;6.70;;;;;;;1.54;79.02;99666.63;101889;1305;74964;-25
2022/10/14 00:15:14;;;;;;;16.60;7.90;;;;;;;2.18;77.98;99668.00;102306;1297;62757;-25
2022/10/14 00:17:41;;;;;;;14.10;7.90;;;;;;;2.29;77.22;99666.21;102323;1292;61857;-25
2022/10/14 00:20:08;;;;;;;22.10;12.00;;;;;;;2.14;77.09;99667.27;102316;1299;74512;-25
2022/10/14 00:22:35;;;;;;;19.20;13.10;;;;;;;1.89;77.23;99665.08;102103;1301;77069;-25
2022/10/14 00:25:03;;;;;;;24.80;14.70;;;;;;;1.63;77.43;99664.82;102326;1302;75085;-25
2022/10/14 00:27:30;;;;;;;20.00;11.60;;;;;;;1.37;77.51;99663.46;102201;1294;61164;-25
2022/10/14 00:30:00;;;;;;;19.80;10.50;;;;;;;1.11;78.13;99661.24;102191;1294;61779;-25
2022/10/14 00:32:27;;;;;;;13.30;5.50;;;;;;;0.89;78.66;99659.52;102257;1291;75178;-27
2022/10/14 00:34:54;;;;;;;35.50;14.60;;;;;;;1.30;79.10;99654.96;102139;1301;76680;-25
2022/10/14 00:37:21;;;;;;;30.70;13.90;;;;;;;1.94;78.09;99654.83;102265;1302;74224;-25
2022/10/14 00:39:48;;;;;;;24.60;12.30;;;;;;;2.07;77.28;99651.27;102320;1302;61263;-25
2022/10/14 00:42:23;;;;;;;16.90;8.60;;;;;;;1.93;77.14;99648.17;102057;1293;61860;-25
2022/10/14 00:44:59;;;;;;;16.90;8.60;;;;;;;1.68;77.10;99644.43;102151;1294;76301;-25
2022/10/14 00:47:27;;;;;;;19.50;11.30;;;;;;;1.40;77.22;99643.52;102092;1297;76003;-25
2022/10/14 00:49:54;;;;;;;19.40;8.90;;;;;;;1.15;77.37;99642.11;102253;1292;75326;-25
2022/10/14 00:52:21;;;;;;;19.30;7.90;;;;;;;0.90;77.98;99638.82;102028;1304;61152;-25
2022/10/14 00:54:54;;;;;;;12.10;4.60;;;;;;;0.70;78.95;99636.88;102211;1299;61695;-25
2022/10/14 00:57:21;;;;;;;12.10;6.50;;;;;;;1.13;78.78;99636.55;102030;1301;76396;-25
2022/10/14 00:59:48;;;;;;;14.30;6.70;;;;;;;1.74;77.51;99637.88;102171;1299;76705;-25
2022/10/14 01:02:15;;;;;;;15.70;7.20;;;;;;;1.82;76.64;99640.17;102015;1295;72853;-25
2022/10/14 01:04:45;;;;;;;10.40;5.40;;;;;;;1.62;76.46;99635.73;102137;1305;62996;-25
2022/10/14 01:07:31;;;;;;;13.50;7.90;;;;;;;1.34;76.79;99632.91;102189;1295;62730;-25
2022/10/14 01:10:28;;;;;;;20.00;9.70;;;;;;;1.06;77.90;99629.25;102047;1299;74529;-25
2022/10/14 01:13:24;;;;;;;16.80;8.70;;;;;;;0.75;78.07;99630.39;102296;1302;76732;-25
2022/10/14 01:16:01;;;;;;;17.00;9.10;;;;;;;0.48;78.64;99628.98;102158;1294;74995;-25
2022/10/14 01:18:51;;;;;;;9.80;4.60;;;;;;;0.29;79.25;99626.50;102011;1302;63659;-25
2022/10/14 01:21:44;;;;;;;19.40;10.00;;;;;;;0.93;79.17;99627.95;102102;1296;61870;-25
2022/10/14 01:24:20;;;;;;;19.10;10.70;;;;;;;1.56;77.81;99623.11;101934;1299;76478;-25
2022/10/14 01:27:05;;;;;;;16.80;8.80;;;;;;;1.55;77.31;99621.27;102259;1299;75686;-25
2022/10/14 01:29:54;;;;;;;21.80;7.80;;;;;;;1.31;77.20;99621.56;101928;1298;75162;-25
2022/10/14 01:32:51;;;;;;;10.70;6.50;;;;;;;1.02;77.37;99622.34;102168;1294;62060;-25
2022/10/14 01:35:48;;;;;;;11.60;6.70;;;;;;;0.71;77.69;99625.74;101848;1303;62903;-25
2022/10/14 01:38:22;;;;;;;14.10;6.90;;;;;;;0.46;78.43;99626.16;102046;1297;76655;-25
2022/10/14 01:40:59;;;;;;;6.80;3.10;;;;;;;0.30;79.12;99622.89;102200;1301;76781;-25
2022/10/14 01:43:26;;;;;;;13.20;6.70;;;;;;;0.80;79.13;99619.30;101906;1297;74301;-25
2022/10/14 01:45:53;;;;;;;14.60;6.80;;;;;;;1.40;78.01;99616.45;102336;1293;62137;-25
2022/10/14 01:48:22;;;;;;;17.00;7.20;;;;;;;1.52;77.41;99611.95;101878;1291;61535;-25
2022/10/14 01:50:49;;;;;;;7.00;4.90;;;;;;;1.37;77.33;99609.57;101975;1304;75309;-25
2022/10/14 01:53:20;;;;;;;11.90;5.90;;;;;;;1.14;77.51;99610.34;101970;1292;76662;-25
2022/10/14 01:55:47;;;;;;;14.70;7.60;;;;;;;0.87;77.71;99607.43;101973;1305;73885;-26
2022/10/14 01:58:15;;;;;;;18.80;11.10;;;;;;;0.63;77.72;99605.47;102062;1294;62355;-25
2022/10/14 02:00:43;;;;;;;25.50;13.60;;;;;;;0.41;78.49;99603.42;102076;1301;63287;-25
2022/10/14 02:03:11;;;;;;;12.90;5.30;;;;;;;0.26;78.47;99604.38;102308;1298;76172;-25
2022/10/14 02:06:00;;;;;;;15.50;6.40;;;;;;;0.70;78.53;99602.87;101913;1297;75918;-25
2022/10/14 02:08:41;;;;;;;13.20;6.90;;;;;;;1.38;77.98;99598.42;102294;1300;75241;-25
2022/10/14 02:11:11;;;;;;;12.80;5.30;;;;;;;1.43;77.98;99600.11;101953;1300;61901;-25
2022/10/14 02:14:08;;;;;;;12.40;4.70;;;;;;;1.25;77.98;99600.20;101959;1304;62658;-25
2022/10/14 02:16:48;;;;;;;9.60;5.10;;;;;;;0.97;78.32;99601.33;102027;1302;75243;-25
2022/10/14 02:19:21;;;;;;;16.20;6.80;;;;;;;0.69;78.51;99605.81;102251;1292;75835;-25
2022/10/14 02:21:56;;;;;;;10.20;6.10;;;;;;;0.43;78.63;99599.09;102256;1292;75307;-25
2022/10/14 02:24:30;;;;;;;15.90;7.80;;;;;;;0.17;78.68;99598.34;101968;1303;61796;-25
2022/10/14 02:27:00;;;;;;;13.10;3.40;;;;;;;-0.01;79.33;99599.38;102332;1299;62545;-25
2022/10/14 02:29:27;;;;;;;13.80;6.40;;;;;;;0.48;79.26;99595.85;101971;1299;76128;-25
2022/10/14 02:31:55;;;;;;;15.70;8.60;;;;;;;1.14;78.65;99594.59;102086;1301;75709;-25
2022/10/14 02:34:22;;;;;;;19.00;8.80;;;;;;;1.28;78.10;99590.54;102005;1305;75172;-25
2022/10/14 02:36:49;;;;;;;12.90;6.10;;;;;;;1.13;78.17;99591.55;101877;1304;63361;-25
2022/10/14 02:39:27;;;;;;;15.30;6.80;;;;;;;0.87;78.19;99588.64;101895;1301;61868;-25
2022/10/14 02:41:55;;;;;;;24.40;9.70;;;;;;;0.59;78.81;99592.27;102040;1297;76080;-25
2022/10/14 02:44:23;;;;;;;14.10;8.20;;;;;;;0.38;79.00;99587.46;102235;1295;76637;-25
2022/10/14 02:46:50;;;;;;;16.30;8.40;;;;;;;0.18;79.27;99584.65;102172;1298;75249;-25
2022/10/14 02:49:17;;;;;;;10.70;4.60;;;;;;;0.01;79.94;99584.11;102167;1295;62687;-25
2022/10/14 02:51:44;;;;;;;17.80;6.50;;;;;;;0.46;80.55;99581.56;102121;1302;62518;-25
2022/10/14 02:54:11;;;;;;;15.00;7.00;;;;;;;1.15;79.11;99579.35;102158;1295;75080;-26
2022/10/14 02:56:38;;;;;;;17.60;7.40;;;;;;;1.28;78.40;99581.30;102073;1296;77172;-25
2022/10/14 02:59:05;;;;;;;12.40;5.80;;;;;;;1.15;78.28;99578.48;102225;1301;74137;-25
2022/10/14 03:01:32;;;;;;;14.00;6.10;;;;;;;0.91;78.46;99584.41;101928;1302;62058;-25
2022/10/14 03:04:04;;;;;;;16.20;7.00;;;;;;;0.66;78.99;99586.76;101964;1299;61710;-25
2022/10/14 03:06:31;;;;;;;10.30;5.80;;;;;;;0.44;79.32;99588.63;102306;1302;76363;-25
2022/10/14 03:08:58;;;;;;;10.80;6.40;;;;;;;0.24;79.51;99586.85;102221;1299;76782;-25
2022/10/14 03:11:26;;;;;;;8.80;3.80;;;;;;;0.10;79.94;99586.95;102286;1294;74254;-25
2022/10/14 03:13:55;;;;;;;14.50;6.40;;;;;;;0.57;80.07;99588.89;102310;1299;61629;-25
2022/10/14 03:16:22;;;;;;;15.50;7.20;;;;;;;1.25;78.60;99589.95;102129;1304;62840;-25
2022/10/14 03:18:51;;;;;;;16.00;6.70;;;;;;;1.38;77.77;99587.45;102291;1301;76357;-25
2022/10/14 03:21:21;;;;;;;10.90;5.60;;;;;;;1.16;77.06;99590.95;102116;1302;76689;-25
2022/10/14 03:23:49;;;;;;;14.90;7.40;;;;;;;0.86;77.16;99595.86;102297;1302;73156;-25
2022/10/14 03:26:22;;;;;;;21.30;11.10;;;;;;;0.53;78.20;99598.63;102056;1300;62213;-25
2022/10/14 03:28:50;;;;;;;20.80;11.00;;;;;;;0.25;79.12;99592.79;102102;1298;61852;-25
2022/10/14 03:31:24;;;;;;;21.10;10.20;;;;;;;0.02;79.56;99592.64;102313;1302;75321;-25
2022/10/14 03:34:11;;;;;;;11.10;5.10;;;;;;;-0.17;80.30;99590.45;102241;1289;77248;-25
2022/10/14 03:36:38;;;;;;;29.70;9.30;;;;;;;0.37;80.27;99593.29;102343;1298;75204;-25
2022/10/14 03:39:06;;;;;;;19.30;9.90;;;;;;;1.04;78.76;99594.93;102266;1302;62611;-25
2022/10/14 03:41:37;;;;;;;27.20;12.90;;;;;;;1.17;77.99;99593.14;102351;1302;61144;-25
2022/10/14 03:44:05;;;;;;;26.20;8.90;;;;;;;1.02;78.28;99592.28;102321;1299;75310;-25
2022/10/14 03:46:33;;;;;;;15.70;9.00;;;;;;;0.79;78.11;99589.09;102312;1302;76733;-25
2022/10/14 03:49:00;;;;;;;21.90;10.60;;;;;;;0.52;78.32;99588.40;102035;1295;75232;-25
2022/10/14 03:51:28;;;;;;;29.60;15.80;;;;;;;0.27;78.74;99586.07;102330;1299;61611;-25
2022/10/14 03:54:05;;;;;;;26.60;13.10;;;;;;;0.04;79.93;99584.89;102323;1298;62848;-25
2022/10/14 03:56:32;;;;;;;9.40;4.00;;;;;;;-0.11;80.58;99586.35;102041;1295;76426;-25
2022/10/14 03:58:59;;;;;;;16.30;7.60;;;;;;;0.32;80.74;99585.06;102097;1300;75814;-25
2022/10/14 04:01:26;;;;;;;19.10;9.50;;;;;;;0.99;79.66;99582.96;102026;1299;75589;-26
2022/10/14 04:04:16;;;;;;;13.90;7.50;;;;;;;1.15;78.89;99583.28;102108;1300;62889;-25
2022/10/14 04:06:44;;;;;;;11.20;5.90;;;;;;;1.00;78.43;99578.99;102268;1299;61772;-25
2022/10/14 04:09:11;;;;;;;16.30;6.30;;;;;;;0.77;78.67;99582.31;102231;1294;76415;-25
2022/10/14 04:11:39;;;;;;;13.80;6.90;;;;;;;0.55;78.76;99588.12;102210;1294;75710;-25
2022/10/14 04:14:09;;;;;;;18.00;6.90;;;;;;;0.34;78.87;99588.95;102233;1302;73893;-25
2022/10/14 04:16:42;;;;;;;20.60;9.00;;;;;;;0.13;79.54;99591.97;102255;1297;62044;-25
2022/10/14 04:19:16;;;;;;;7.80;3.20;;;;;;;-0.01;80.06;99595.10;102191;1296;63091;-25
2022/10/14 04:21:43;;;;;;;15.40;6.90;;;;;;;0.49;80.10;99596.85;102130;1300;76395;-25
2022/10/14 04:24:10;;;;;;;17.30;8.20;;;;;;;1.16;78.55;99594.69;102064;1299;76508;-25
2022/10/14 04:26:44;;;;;;;16.10;9.10;;;;;;;1.28;77.42;99595.66;102288;1302;75156;-26
2022/10/14 04:29:20;;;;;;;13.30;7.10;;;;;;;1.08;77.16;99588.83;102334;1302;61841;-25
2022/10/14 04:32:10;;;;;;;13.10;7.60;;;;;;;0.77;77.72;99588.45;102230;1297;61123;-26
2022/10/14 04:34:38;;;;;;;18.80;8.50;;;;;;;0.51;77.92;99589.80;102127;1300;76095;-26
2022/10/14 04:37:05;;;;;;;12.50;7.10;;;;;;;0.24;78.42;99586.67;102350;1295;76567;-26
2022/10/14 04:39:53;;;;;;;18.60;8.20;;;;;;;-0.01;79.15;99586.89;102226;1294;75256;-26
2022/10/14 04:42:20;;;;;;;10.10;3.80;;;;;;;-0.14;80.09;99584.56;102327;1298;63362;-25
2022/10/14 04:44:50;;;;;;;16.80;7.10;;;;;;;0.32;80.50;99584.55;102360;1297;62570;-26
2022/10/14 04:47:21;;;;;;;16.60;7.40;;;;;;;1.03;79.32;99582.33;102297;1294;75344;-26
2022/10/14 04:49:50;;;;;;;20.50;8.80;;;;;;;1.21;78.45;99583.61;102183;1299;76460;-26
2022/10/14 04:52:19;;;;;;;15.20;6.30;;;;;;;1.07;78.08;99581.14;102315;1302;75207;-26
2022/10/14 04:54:52;;;;;;;14.50;7.40;;;;;;;0.86;78.48;99578.25;102233;1299;61161;-25
2022/10/14 04:57:28;;;;;;;14.60;8.20;;;;;;;0.66;78.70;99578.73;102284;1301;61772;-25
2022/10/14 04:59:55;;;;;;;20.50;10.10;;;;;;;0.47;78.74;99579.83;102141;1301;75466;-25
2022/10/14 05:02:41;;;;;;;18.00;8.70;;;;;;;0.28;79.16;99576.51;102222;1297;75943;-25
2022/10/14 05:05:09;;;;;;;12.60;4.70;;;;;;;0.15;79.75;99576.02;102243;1298;74214;-25
2022/10/14 05:07:38;;;;;;;13.00;7.30;;;;;;;0.65;79.98;99580.81;102311;1297;61607;-26
2022/10/14 05:10:19;;;;;;;14.80;8.10;;;;;;;1.42;78.35;99583.21;101998;1299;61816;-26
2022/10/14 05:12:46;;;;;;;22.30;9.10;;;;;;;1.58;77.64;99580.07;102305;1294;75157;-26
2022/10/14 05:15:14;;;;;;;12.50;6.60;;;;;;;1.48;77.17;99579.39;102094;1302;76655;-26
2022/10/14 05:17:50;;;;;;;16.40;8.50;;;;;;;1.32;77.70;99576.38;102283;1299;75183;-25
2022/10/14 05:20:18;;;;;;;15.90;8.70;;;;;;;1.16;78.32;99576.41;102196;1299;61061;-25
2022/10/14 05:22:47;;;;;;;19.30;9.40;;;;;;;1.01;78.70;99580.51;102258;1298;61555;-25
2022/10/14 05:25:15;;;;;;;20.40;10.70;;;;;;;0.90;78.96;99580.33;102317;1297;76172;-25
2022/10/14 05:27:42;;;;;;;8.40;4.40;;;;;;;0.84;79.41;99578.69;102286;1286;76605;-25
2022/10/14 05:30:10;;;;;;;42.70;13.90;;;;;;;1.36;79.77;99576.02;102298;1302;74935;-25
2022/10/14 05:32:41;;;;;;;29.60;14.10;;;;;;;2.15;78.44;99582.11;102079;1301;62858;-26
2022/10/14 05:35:08;;;;;;;41.70;17.30;;;;;;;2.39;77.63;99580.85;102269;1292;61598;-25
2022/10/14 05:37:37;;;;;;;31.60;12.70;;;;;;;2.32;77.66;99580.45;102159;1299;76349;-25
2022/10/14 05:40:06;;;;;;;45.50;16.90;;;;;;;2.20;78.08;99580.54;102172;1302;77326;-25
2022/10/14 05:42:34;;;;;;;26.30;11.80;;;;;;;2.06;78.27;99583.47;101972;1288;73925;-25
2022/10/14 05:45:03;;;;;;;21.20;11.10;;;;;;;1.93;78.58;99583.61;102229;1302;61508;-26
2022/10/14 05:47:30;;;;;;;11.30;5.30;;;;;;;1.84;78.90;99582.91;101990;1304;61853;-26
2022/10/14 05:50:03;;;;;;;19.60;7.70;;;;;;;2.34;78.84;99585.48;102334;1298;76250;-25
2022/10/14 05:52:31;;;;;;;12.10;6.40;;;;;;;3.04;77.59;99589.90;102339;1291;77250;-25
2022/10/14 05:55:03;;;;;;;13.40;6.80;;;;;;;3.22;76.88;99593.95;102165;1300;75379;-25
2022/10/14 05:57:32;;;;;;;13.50;6.70;;;;;;;3.16;76.95;99590.79;102385;1291;62889;-26
2022/10/14 06:00:00;;;;;;;15.60;7.40;;;;;;;3.03;77.58;99589.29;102338;1294;62898;-25
2022/10/14 06:02:30;;;;;;;13.40;7.40;;;;;;;2.90;77.86;99595.63;102151;1302;76473;-25
2022/10/14 06:04:57;;;;;;;13.30;7.70;;;;;;;2.79;78.44;99590.92;102068;1294;76764;-25
2022/10/14 06:07:24;;;;;;;9.20;4.10;;;;;;;2.74;79.14;99590.95;102030;1302;75276;-25
2022/10/14 06:09:51;;;;;;;10.40;6.10;;;;;;;3.29;79.57;99595.23;102132;1298;61017;-25
2022/10/14 06:12:19;;;;;;;11.50;6.00;;;;;;;4.03;78.47;99598.67;102129;1294;62886;-25
2022/10/14 06:14:46;;;;;;;12.70;5.60;;;;;;;4.28;77.48;99597.88;101979;1307;76414;-25
2022/10/14 06:17:13;;;;;;;10.10;5.00;;;;;;;4.25;77.56;99599.92;102161;1302;75802;-25
2022/10/14 06:19:43;;;;;;;10.70;5.50;;;;;;;4.16;77.72;99599.33;101961;1305;73721;-25
2022/10/14 06:22:11;;;;;;;10.70;5.20;;;;;;;4.03;78.11;99594.92;101944;1302;62051;-25
2022/10/14 06:24:37;;;;;;;10.20;5.20;;;;;;;3.93;78.28;99593.66;102154;1300;61537;-26
2022/10/14 06:27:04;;;;;;;14.60;3.90;;;;;;;3.87;78.37;99592.89;101974;1301;75509;-25
2022/10/14 06:29:36;;;;;;;9.10;4.20;;;;;;;4.41;78.78;99589.39;102156;1301;76475;-25
2022/10/14 06:32:04;;;;;;;9.90;5.60;;;;;;;5.19;77.54;99588.55;102046;1294;74008;-25
2022/10/14 06:34:31;;;;;;;10.70;5.90;;;;;;;5.46;76.86;99583.39;101908;1305;61806;-25
2022/10/14 06:36:59;;;;;;;11.30;6.10;;;;;;;5.50;77.05;99588.32;102053;1302;61826;-25
2022/10/14 06:39:28;;;;;;;12.00;7.20;;;;;;;5.48;76.99;99584.16;102093;1300;76411;-25
2022/10/14 06:41:55;;;;;;;11.10;6.60;;;;;;;5.46;77.05;99580.80;101873;1302;74620;-25
2022/10/14 06:44:22;;;;;;;16.60;9.00;;;;;;;5.46;77.40;99579.45;102079;1300;75254;-25
2022/10/14 06:46:49;;;;;;;12.80;6.60;;;;;;;5.51;77.70;99579.48;102209;1302;61771;-25
2022/10/14 06:49:17;;;;;;;16.20;7.90;;;;;;;6.19;77.29;99581.80;101938;1301;61647;-25
2022/10/14 06:51:44;;;;;;;19.30;8.60;;;;;;;7.03;74.98;99582.31;102108;1302;76485;-25
2022/10/14 06:54:11;;;;;;;17.50;9.00;;;;;;;7.38;73.38;99583.88;102133;1302;77131;-25
2022/10/14 06:56:38;;;;;;;15.20;8.50;;;;;;;7.52;73.07;99587.54;101995;1303;75523;-25
2022/10/14 06:59:05;;;;;;;16.40;8.60;;;;;;;7.61;72.69;99587.02;102061;1301;61812;-25
2022/10/14 07:01:32;;;;;;;14.60;8.20;;;;;;;7.70;72.44;99586.67;102148;1298;61731;-26
2022/10/14 07:03:59;;;;;;;14.20;7.80;;;;;;;7.80;72.26;99587.45;102133;1298;76109;-25
2022/10/14 07:06:26;;;;;;;15.80;7.90;;;;;;;7.95;71.75;99588.93;102234;1297;75461;-25
2022/10/14 07:08:53;;;;;;;16.60;7.70;;;;;;;8.12;71.02;99585.96;102307;1305;75329;-25
2022/10/14 07:11:21;;;;;;;14.00;6.90;;;;;;;8.27;70.65;99590.60;102225;1301;62854;-25
2022/10/14 07:13:48;;;;;;;15.50;8.30;;;;;;;8.36;70.44;99589.19;102296;1295;62774;-25
2022/10/14 07:16:15;;;;;;;14.20;7.30;;;;;;;8.44;70.42;99586.90;102223;1302;75176;-25
2022/10/14 07:18:42;;;;;;;12.00;6.90;;;;;;;8.51;70.72;99587.89;101533;1298;1107072;-25
2022/10/14 07:21:09;;;;;;;11.70;6.70;;;;;;;8.62;70.72;99585.63;102138;1300;75367;-25
2022/10/14 07:23:36;;;;;;;13.10;6.40;;;;;;;8.73;70.33;99589.60;102266;1297;63097;-25
2022/10/14 07:26:04;;;;;;;12.20;4.80;;;;;;;8.87;70.38;99587.98;102293;1301;61611;-25
2022/10/14 07:28:32;;;;;;;7.60;5.00;;;;;;;8.95;69.24;99585.92;102233;1299;76602;-25
2022/10/14 07:31:01;;;;;;;9.20;5.00;;;;;;;9.01;69.11;99583.45;102251;1301;76705;-25
2022/10/14 07:33:28;;;;;;;7.80;3.30;;;;;;;9.17;69.55;99586.52;102041;1295;75489;-25
2022/10/14 07:36:00;;;;;;;8.70;3.40;;;;;;;10.03;68.10;99589.89;102250;1294;61132;-25
2022/10/14 07:38:27;;;;;;;7.70;3.60;;;;;;;10.82;65.24;99585.85;102137;1299;61050;-25
2022/10/14 07:41:00;;;;;;;7.40;3.70;;;;;;;11.08;63.95;99583.91;102087;1299;76393;-25
2022/10/14 07:43:27;;;;;;;6.80;3.50;;;;;;;11.13;63.30;99579.92;102039;1297;75778;-25
2022/10/14 07:46:00;;;;;;;9.20;4.50;;;;;;;11.12;63.54;99578.36;102280;1297;74880;-25
2022/10/14 07:48:28;;;;;;;5.20;3.20;;;;;;;11.08;62.98;99578.22;102172;1291;62881;-25
2022/10/14 07:51:11;;;;;;;9.80;3.20;;;;;;;11.04;63.95;99581.93;102299;1299;62565;-25
2022/10/14 07:53:38;;;;;;;6.00;3.40;;;;;;;11.07;63.94;99578.59;102136;1302;76355;-25
2022/10/14 07:56:05;;;;;;;6.30;3.10;;;;;;;11.05;63.38;99581.69;102249;1300;76763;-25
2022/10/14 07:58:32;;;;;;;6.90;3.80;;;;;;;11.06;63.82;99577.98;102189;1301;74246;-25
2022/10/14 08:01:00;;;;;;;6.60;3.60;;;;;;;11.12;63.83;99579.23;102291;1302;61651;-25
2022/10/14 08:03:29;;;;;;;10.40;3.70;;;;;;;11.27;63.27;99575.35;102250;1302;62824;-25
2022/10/14 08:05:58;;;;;;;7.00;3.60;;;;;;;11.49;63.22;99573.33;102311;1300;75378;-25
2022/10/14 08:08:27;;;;;;;7.40;3.50;;;;;;;11.77;62.78;99577.84;102048;1304;76860;-25
2022/10/14 08:11:01;;;;;;;6.30;3.50;;;;;;;12.04;61.23;99579.97;102304;1302;74999;-25
2022/10/14 08:13:28;;;;;;;6.10;3.00;;;;;;;12.22;60.29;99576.91;102062;1302;61765;-25
2022/10/14 08:15:56;;;;;;;10.60;3.30;;;;;;;12.36;59.74;99574.64;102328;1294;61223;-24
2022/10/14 08:18:23;;;;;;;7.90;3.50;;;;;;;12.46;57.79;99573.28;102035;1301;74910;-25
2022/10/14 08:20:50;;;;;;;6.80;3.10;;;;;;;12.59;58.22;99572.77;102017;1295;75417;-25
2022/10/14 08:23:17;;;;;;;6.60;2.80;;;;;;;12.56;56.74;99570.94;102167;1302;75686;-25
2022/10/14 08:25:46;;;;;;;4.80;2.90;;;;;;;12.74;57.60;99565.10;102334;1302;62898;-25
2022/10/14 08:28:13;;;;;;;6.40;2.50;;;;;;;13.09;57.23;99559.30;102376;1292;62860;-25
2022/10/14 08:30:41;;;;;;;7.30;2.40;;;;;;;13.45;55.73;99560.11;102114;1295;76392;-25
2022/10/14 08:33:08;;;;;;;5.30;2.40;;;;;;;13.69;53.33;99554.48;102264;1297;76639;-25
2022/10/14 08:35:35;;;;;;;6.10;2.80;;;;;;;13.99;53.08;99555.33;102058;1304;75184;-25
2022/10/14 08:38:02;;;;;;;3.90;1.80;;;;;;;14.23;50.93;99551.16;102180;1299;61558;-25
2022/10/14 08:40:32;;;;;;;4.90;2.20;;;;;;;14.28;49.05;99549.64;102206;1297;61804;-25
2022/10/14 08:43:03;;;;;;;5.00;2.40;;;;;;;14.45;49.90;99552.73;101978;1303;76027;-25
2022/10/14 08:45:36;;;;;;;5.60;2.00;;;;;;;14.66;48.02;99544.30;101967;1303;76688;-25
2022/10/14 08:48:11;;;;;;;4.70;2.00;;;;;;;14.69;47.17;99549.80;101898;1298;75047;-22
2022/10/14 08:50:53;;;;;;;3.40;1.70;;;;;;;14.88;46.46;99543.48;101925;1304;61185;-24
2022/10/14 08:53:22;;;;;;;3.60;2.10;;;;;;;14.93;45.47;99549.62;102049;1305;62701;-23
2022/10/14 08:55:53;;;;;;;3.50;1.50;;;;;;;15.07;45.19;99553.23;102096;1302;75471;-23
2022/10/14 08:58:33;;;;;;;2.70;1.60;;;;;;;14.92;43.77;99552.88;102183;1298;75742;-23
2022/10/14 09:01:04;;;;;;;5.10;1.80;;;;;;;14.64;43.61;99552.23;101969;1302;75062;-23
2022/10/14 09:03:37;;;;;;;2.60;1.20;;;;;;;14.55;44.42;99552.80;101933;1301;61608;-23
2022/10/14 09:06:21;;;;;;;9.50;2.50;;;;;;;14.56;43.95;99549.05;102047;1303;62709;-24
2022/10/14 09:08:48;;;;;;;4.20;1.70;;;;;;;14.59;44.16;99550.24;102123;1299;75462;-23
2022/10/14 09:11:20;;;;;;;11.20;2.40;;;;;;;14.82;43.60;99548.73;101898;1303;76734;-24
2022/10/14 09:14:07;;;;;;;5.00;1.70;;;;;;;15.20;44.72;99546.59;101923;1303;75536;-24
2022/10/14 09:16:35;;;;;;;2.80;1.10;;;;;;;15.48;43.13;99549.15;102037;1303;61617;-24
2022/10/14 09:19:04;;;;;;;5.10;2.20;;;;;;;15.45;42.97;99548.01;102089;1297;61797;-24
2022/10/14 09:21:33;;;;;;;3.80;2.00;;;;;;;15.88;44.22;99549.88;101950;1300;76886;-24
2022/10/14 09:24:24;;;;;;;3.60;1.60;;;;;;;16.16;42.30;99542.74;102090;1299;76557;-24
2022/10/14 09:26:56;;;;;;;4.00;1.80;;;;;;;15.91;41.84;99541.77;101979;1305;74240;-23
2022/10/14 09:29:28;;;;;;;5.10;1.60;;;;;;;16.02;41.48;99538.04;101938;1304;62903;-24
2022/10/14 09:32:06;;;;;;;9.40;1.80;;;;;;;15.98;42.22;99543.69;101980;1299;61852;-23
2022/10/14 09:34:35;;;;;;;5.20;1.80;;;;;;;16.19;41.39;99538.08;102006;1304;75377;-24
2022/10/14 09:37:19;;;;;;;2.80;1.70;;;;;;;16.30;42.24;99545.22;101994;1303;75626;-24
2022/10/14 09:39:47;;;;;;;4.90;1.70;;;;;;;16.67;41.77;99541.65;102160;1301;75276;-24
2022/10/14 09:42:19;;;;;;;4.30;1.90;;;;;;;16.84;41.37;99536.57;101906;1299;61514;-24
2022/10/14 09:45:05;;;;;;;4.80;2.60;;;;;;;16.66;41.18;99536.84;102061;1299;61867;-24
2022/10/14 09:47:43;;;;;;;3.80;2.00;;;;;;;16.61;41.71;99535.05;102124;1298;76081;-24
2022/10/14 09:50:19;;;;;;;3.20;1.60;;;;;;;16.86;41.52;99529.95;101921;1304;75849;-24
2022/10/14 09:52:49;;;;;;;2.60;1.60;;;;;;;17.25;41.22;99535.70;102087;1299;74454;-24
2022/10/14 09:55:18;;;;;;;5.90;1.90;;;;;;;17.55;40.02;99529.32;102137;1300;62550;-24
2022/10/14 09:57:46;;;;;;;2.50;1.60;;;;;;;17.68;39.75;99531.30;102088;1299;61729;-24
2022/10/14 10:00:26;;;;;;;5.20;1.40;;;;;;;17.61;39.15;99525.48;102015;1295;76394;-24
2022/10/14 10:02:54;;;;;;;3.60;1.80;;;;;;;17.52;39.01;99526.99;101925;1300;76529;-24
2022/10/14 10:05:25;;;;;;;4.50;1.60;;;;;;;17.33;38.24;99529.27;102226;1302;75169;-24
2022/10/14 10:08:13;;;;;;;4.40;1.60;;;;;;;17.27;38.41;99527.21;102136;1302;62061;-24
2022/10/14 10:10:41;;;;;;;2.90;1.50;;;;;;;17.58;39.62;99526.72;101932;1302;61660;-24
2022/10/14 10:13:21;;;;;;;7.30;1.90;;;;;;;17.86;39.08;99524.84;102236;1295;75687;-24
2022/10/14 10:15:56;;;;;;;3.50;1.50;;;;;;;17.79;38.11;99523.50;101893;1305;76583;-26
2022/10/14 10:18:23;;;;;;;5.00;1.80;;;;;;;17.27;37.62;99524.41;101901;1302;74726;-24
2022/10/14 10:21:26;;;;;;;5.70;1.70;;;;;;;16.91;38.51;99524.05;102044;1294;62947;-24
2022/10/14 10:24:00;;;;;;;2.60;1.60;;;;;;;16.78;38.93;99528.27;101805;1298;61512;-24
2022/10/14 10:26:32;;;;;;;2.90;1.90;;;;;;;16.71;39.28;99522.59;102078;1301;76554;-24
2022/10/14 10:29:01;;;;;;;4.10;2.00;;;;;;;17.02;39.19;99520.23;101926;1305;77106;-24
2022/10/14 10:31:50;;;;;;;5.50;2.00;;;;;;;17.15;39.15;99518.28;101977;1297;75393;-24
2022/10/14 10:34:36;;;;;;;4.40;2.10;;;;;;;17.39;39.06;99517.07;102299;1293;61586;-24
2022/10/14 10:37:08;;;;;;;2.70;2.00;;;;;;;17.89;38.54;99518.09;102035;1294;62881;-24
2022/10/14 10:39:58;;;;;;;2.90;1.90;;;;;;;18.18;37.13;99512.92;102048;1295;75334;-24
2022/10/14 10:43:19;;;;;;;3.20;1.60;;;;;;;18.41;37.53;99517.40;101866;1305;77105;-25
2022/10/14 10:46:08;;;;;;;4.30;1.90;;;;;;;18.28;37.14;99516.10;101668;1305;75092;-24
2022/10/14 10:48:37;;;;;;;7.30;2.50;;;;;;;17.89;37.45;99517.21;102056;1302;61172;-24
2022/10/14 10:51:21;;;;;;;3.50;1.90;;;;;;;17.93;38.39;99516.63;101957;1298;62164;-24
2022/10/14 10:54:25;;;;;;;3.70;2.00;;;;;;;18.18;37.51;99512.95;101900;1306;75353;-24
2022/10/14 10:57:03;;;;;;;5.70;2.50;;;;;;;17.68;38.31;99516.33;101915;1303;75232;-24
2022/10/14 10:59:43;;;;;;;4.90;2.30;;;;;;;17.69;38.52;99509.09;102002;1303;74020;-24
2022/10/14 11:02:32;;;;;;;6.10;2.40;;;;;;;18.01;38.23;99505.56;102086;1302;62882;-24
2022/10/14 11:05:44;;;;;;;3.60;1.90;;;;;;;18.35;37.34;99503.41;102135;1300;61600;-24
2022/10/14 11:14:36;;;;;;;4.10;2.20;;;;;;;18.84;35.89;99504.33;102257;1286;74377;-25
2022/10/14 11:17:19;;;;;;;6.50;2.40;;;;;;;19.05;36.60;99501.23;102014;1297;61213;-24
2022/10/14 11:19:47;;;;;;;6.50;1.90;;;;;;;18.87;36.19;99502.22;102019;1303;62993;-25
2022/10/14 11:22:37;;;;;;;7.00;1.60;;;;;;;18.68;36.62;99501.02;102277;1301;76139;-26
2022/10/14 11:25:29;;;;;;;4.30;1.90;;;;;;;17.92;35.97;99502.27;102231;1302;76776;-26
2022/10/14 11:28:14;;;;;;;3.50;1.80;;;;;;;17.96;36.60;99492.73;102189;1302;75043;-25
2022/10/14 11:31:02;;;;;;;3.20;1.70;;;;;;;17.98;37.47;99487.30;102122;1302;61551;-26
2022/10/14 11:33:43;;;;;;;3.40;1.80;;;;;;;17.54;36.83;99485.83;102165;1302;61653;-25
2022/10/14 11:36:17;;;;;;;2.30;1.20;;;;;;;17.23;37.37;99483.27;102083;1301;75653;-26
2022/10/14 11:39:06;;;;;;;5.60;1.90;;;;;;;16.80;37.92;99478.48;102085;1292;76864;-23
2022/10/14 11:41:33;;;;;;;3.20;2.00;;;;;;;16.75;39.65;99482.08;102102;1300;74229;-23
2022/10/14 11:44:10;;;;;;;4.30;1.90;;;;;;;17.01;38.59;99473.77;102243;1294;62636;-23
2022/10/14 11:46:41;;;;;;;4.50;2.30;;;;;;;17.02;39.72;99476.14;102255;1302;61985;-25
2022/10/14 11:49:21;;;;;;;8.90;2.50;;;;;;;17.28;38.84;99469.94;102082;1297;76254;-25
2022/10/14 11:51:54;;;;;;;5.20;2.60;;;;;;;17.35;38.70;99468.89;102140;1301;76694;-26
2022/10/14 11:54:33;;;;;;;5.50;2.00;;;;;;;17.37;38.93;99470.91;102124;1301;74260;-27